createdAt,value
2018-12-09T17:45:55.781Z,8.45
2018-12-09T17:46:55.789Z,8.43
2018-12-09T17:55:57.121Z,8.47
2018-12-09T17:56:56.940Z,8.45
2018-12-09T17:57:57.250Z,8.57
2018-12-09T17:58:56.702Z,8.45
2018-12-09T17:59:56.769Z,8.57
2018-12-09T18:00:56.719Z,8.58
2018-12-09T18:01:57.186Z,8.45
2018-12-09T18:03:57.301Z,8.42
2018-12-09T18:04:56.805Z,8.42
2018-12-09T18:05:56.547Z,8.37
2018-12-09T18:06:56.449Z,8.42
2018-12-09T18:07:56.499Z,8.43
2018-12-09T18:08:56.456Z,8.39
2018-12-09T18:09:56.298Z,8.40
2018-12-09T18:10:56.809Z,8.45
2018-12-09T18:12:56.227Z,8.39
2018-12-09T18:13:55.981Z,8.46
2018-12-09T18:14:56.082Z,8.43
2018-12-09T18:15:56.100Z,8.45
2018-12-09T18:16:56.345Z,8.40
2018-12-09T18:17:56.397Z,8.45
2018-12-09T18:18:55.801Z,8.36
2018-12-09T18:19:56.006Z,8.42
2018-12-09T18:20:55.862Z,8.40
2018-12-09T18:21:56.215Z,8.29
2018-12-09T18:22:55.825Z,8.29
2018-12-09T18:23:55.577Z,8.34
2018-12-09T18:24:55.931Z,8.34
2018-12-09T18:25:55.585Z,8.34
2018-12-09T18:26:55.449Z,8.25
2018-12-09T18:27:55.764Z,8.29
2018-12-09T18:28:55.737Z,8.28
2018-12-09T18:29:55.506Z,8.27
2018-12-09T18:30:55.459Z,8.25
2018-12-09T18:31:55.527Z,8.27
2018-12-09T18:32:55.318Z,8.27
2018-12-09T18:33:55.127Z,8.20
2018-12-09T18:34:55.730Z,8.27
2018-12-09T18:35:55.032Z,8.18
2018-12-09T18:36:54.940Z,8.31
2018-12-09T18:37:54.942Z,8.21
2018-12-09T18:38:55.147Z,8.20
2018-12-09T18:39:55.052Z,8.22
2018-12-09T18:40:54.809Z,8.28
2018-12-09T18:41:54.718Z,8.24
2018-12-09T18:42:54.817Z,8.27
2018-12-09T18:43:54.625Z,8.25
2018-12-09T18:44:54.785Z,8.28
2018-12-09T18:45:55.232Z,8.25
2018-12-09T18:46:54.692Z,8.28
2018-12-09T18:47:54.797Z,8.25
2018-12-09T18:48:54.395Z,8.12
2018-12-09T18:49:54.504Z,8.25
2018-12-09T18:50:54.458Z,8.20
2018-12-09T18:51:54.266Z,8.13
2018-12-09T18:52:54.597Z,8.21
2018-12-09T18:53:54.173Z,8.20
2018-12-09T18:54:54.184Z,8.21
2018-12-09T18:55:54.381Z,8.22
2018-12-09T18:56:54.037Z,8.10
2018-12-09T18:57:54.140Z,8.12
2018-12-09T18:58:54.244Z,8.04
2018-12-09T18:59:54.099Z,8.04
2018-12-09T19:00:54.254Z,8.09
2018-12-09T19:01:53.808Z,8.21
2018-12-09T19:02:53.915Z,8.18
2018-12-09T19:03:53.718Z,8.06
2018-12-09T19:04:53.828Z,8.10
2018-12-09T19:05:53.983Z,8.07
2018-12-09T19:06:53.585Z,7.95
2018-12-09T19:07:53.893Z,7.99
2018-12-09T19:08:53.645Z,7.92
2018-12-09T19:09:53.852Z,8.02
2018-12-09T19:10:53.450Z,8.02
2018-12-09T19:11:53.356Z,7.94
2018-12-09T19:12:53.660Z,7.94
2018-12-09T19:13:53.603Z,7.92
2018-12-09T19:14:53.218Z,7.81
2018-12-09T19:15:53.814Z,7.73
2018-12-09T19:16:53.130Z,7.66
2018-12-09T19:17:53.233Z,7.58
2018-12-09T19:18:53.487Z,7.70
2018-12-09T19:19:53.691Z,7.67
2018-12-09T19:20:53.000Z,7.69
2018-12-09T19:21:52.902Z,7.67
2018-12-09T19:22:53.008Z,7.74
2018-12-09T19:23:52.863Z,7.58
2018-12-09T19:24:52.771Z,7.66
2018-12-09T19:25:52.772Z,7.54
2018-12-09T19:26:53.024Z,7.54
2018-12-09T19:27:52.981Z,7.55
2018-12-09T19:28:52.991Z,7.48
2018-12-09T19:29:52.739Z,7.42
2018-12-09T19:31:52.497Z,7.44
2018-12-09T19:32:52.551Z,7.39
2018-12-09T19:33:52.969Z,7.39
2018-12-09T19:34:52.363Z,7.39
2018-12-09T19:35:52.416Z,7.39
2018-12-09T19:36:52.221Z,7.52
2018-12-09T19:37:52.477Z,7.50
2018-12-09T19:39:52.081Z,7.62
2018-12-09T19:40:52.690Z,7.77
2018-12-09T19:41:51.995Z,7.70
2018-12-09T19:42:51.993Z,7.88
2018-12-09T19:43:52.052Z,7.81
2018-12-09T19:44:51.856Z,7.86
2018-12-09T19:45:52.010Z,7.81
2018-12-09T19:46:51.765Z,7.82
2018-12-09T19:47:52.317Z,7.84
2018-12-09T19:48:51.722Z,7.84
2018-12-09T19:49:51.724Z,7.81
2018-12-09T19:50:51.782Z,7.84
2018-12-09T19:51:51.535Z,7.77
2018-12-09T19:52:51.550Z,7.71
2018-12-09T19:53:51.693Z,7.70
2018-12-09T19:54:51.748Z,7.66
2018-12-09T19:55:51.504Z,7.62
2018-12-09T19:56:51.307Z,7.77
2018-12-09T19:57:51.313Z,7.70
2018-12-09T19:58:51.421Z,7.84
2018-12-09T19:59:51.176Z,7.76
2018-12-09T20:00:51.276Z,7.79
2018-12-09T20:01:51.620Z,7.71
2018-12-09T20:02:51.438Z,7.67
2018-12-09T20:03:50.990Z,7.63
2018-12-09T20:04:50.943Z,7.69
2018-12-09T20:05:50.904Z,7.52
2018-12-09T20:06:51.189Z,7.52
2018-12-09T20:07:51.106Z,7.52
2018-12-09T20:08:50.766Z,7.57
2018-12-09T20:09:50.714Z,7.51
2018-12-09T20:10:50.668Z,7.48
2018-12-09T20:11:50.631Z,7.51
2018-12-09T20:12:50.729Z,7.50
2018-12-09T20:13:50.634Z,7.47
2018-12-09T20:14:50.787Z,7.41
2018-12-09T20:15:50.440Z,7.51
2018-12-09T20:16:50.650Z,7.42
2018-12-09T20:17:50.752Z,7.45
2018-12-09T20:18:50.602Z,7.37
2018-12-09T20:19:50.257Z,7.39
2018-12-09T20:20:50.756Z,7.39
2018-12-09T20:21:50.517Z,7.37
2018-12-09T20:22:50.429Z,7.29
2018-12-09T20:23:50.074Z,7.27
2018-12-09T20:24:50.031Z,7.26
2018-12-09T20:25:50.157Z,7.19
2018-12-09T20:26:50.089Z,7.26
2018-12-09T20:27:49.941Z,7.21
2018-12-09T20:29:50.319Z,7.21
2018-12-09T20:30:49.757Z,7.21
2018-12-09T20:31:49.762Z,7.19
2018-12-09T20:32:49.724Z,7.16
2018-12-09T20:33:49.819Z,7.09
2018-12-09T20:34:49.577Z,7.21
2018-12-09T20:35:49.825Z,7.33
2018-12-09T20:36:49.480Z,7.39
2018-12-09T20:37:49.434Z,7.54
2018-12-09T20:38:49.724Z,7.50
2018-12-09T20:39:49.599Z,7.52
2018-12-09T20:40:49.350Z,7.55
2018-12-09T20:41:49.259Z,7.60
2018-12-09T20:42:49.503Z,7.52
2018-12-09T20:43:49.211Z,7.63
2018-12-09T20:44:49.098Z,7.60
2018-12-09T20:45:49.049Z,7.55
2018-12-09T20:46:49.301Z,7.69
2018-12-09T20:47:48.959Z,7.63
2018-12-09T20:48:48.921Z,7.60
2018-12-09T20:49:49.170Z,7.52
2018-12-09T20:50:48.820Z,7.63
2018-12-09T20:51:48.880Z,7.67
2018-12-09T20:52:48.754Z,7.70
2018-12-09T20:53:49.089Z,7.69
2018-12-09T20:54:48.656Z,7.67
2018-12-09T20:55:48.660Z,7.67
2018-12-09T20:56:48.967Z,7.73
2018-12-09T20:57:48.570Z,7.58
2018-12-09T20:58:48.540Z,7.71
2018-12-09T20:59:48.429Z,7.67
2018-12-09T21:00:48.388Z,7.71
2018-12-09T21:01:48.604Z,7.54
2018-12-09T21:02:48.295Z,7.70
2018-12-09T21:03:48.565Z,7.60
2018-12-09T21:04:48.204Z,7.57
2018-12-09T21:05:48.156Z,7.54
2018-12-09T21:06:48.118Z,7.55
2018-12-09T21:07:48.113Z,7.51
2018-12-09T21:08:48.017Z,7.42
2018-12-09T21:09:48.279Z,7.41
2018-12-09T21:10:47.927Z,7.44
2018-12-09T21:11:47.885Z,7.36
2018-12-09T21:12:47.887Z,7.33
2018-12-09T21:13:47.992Z,7.33
2018-12-09T21:14:47.800Z,7.27
2018-12-09T21:16:47.752Z,7.32
2018-12-09T21:17:47.912Z,7.32
2018-12-09T21:18:47.582Z,7.33
2018-12-09T21:19:47.519Z,7.33
2018-12-09T21:20:47.471Z,7.32
2018-12-09T21:21:47.425Z,7.23
2018-12-09T21:22:47.384Z,7.27
2018-12-09T21:23:47.633Z,7.23
2018-12-09T21:24:47.289Z,7.24
2018-12-09T21:25:47.292Z,7.24
2018-12-09T21:26:47.397Z,7.32
2018-12-09T21:27:47.203Z,7.37
2018-12-09T21:28:47.106Z,7.23
2018-12-09T21:29:47.103Z,7.18
2018-12-09T21:30:47.363Z,7.23
2018-12-09T21:31:46.973Z,7.24
2018-12-09T21:32:46.974Z,7.21
2018-12-09T21:33:46.879Z,7.14
2018-12-09T21:34:46.882Z,7.15
2018-12-09T21:35:46.789Z,7.18
2018-12-09T21:36:46.746Z,7.24
2018-12-09T21:37:47.048Z,7.19
2018-12-09T21:38:46.646Z,7.24
2018-12-09T21:39:46.664Z,7.27
2018-12-09T21:40:46.556Z,7.21
2018-12-09T21:41:46.515Z,7.21
2018-12-09T21:42:46.464Z,7.27
2018-12-09T21:43:46.423Z,7.18
2018-12-09T21:44:46.880Z,7.24
2018-12-09T21:45:46.666Z,7.19
2018-12-09T21:46:46.283Z,7.14
2018-12-09T21:47:46.235Z,7.18
2018-12-09T21:48:46.190Z,7.24
2018-12-09T21:49:46.145Z,7.24
2018-12-09T21:50:46.098Z,7.23
2018-12-09T21:51:46.560Z,7.21
2018-12-09T21:52:46.007Z,7.21
2018-12-09T21:54:46.217Z,7.21
2018-12-09T21:55:45.919Z,7.12
2018-12-09T21:56:45.823Z,7.19
2018-12-09T21:57:45.797Z,7.16
2018-12-09T21:58:46.032Z,7.18
2018-12-09T21:59:45.733Z,7.11
2018-12-09T22:00:45.983Z,7.01
2018-12-09T22:01:48.244Z,7.11
2018-12-09T22:02:45.554Z,7.07
2018-12-09T22:03:45.553Z,7.08
2018-12-09T22:04:45.456Z,7.09
2018-12-09T22:05:45.862Z,7.15
2018-12-09T22:06:45.386Z,7.14
2018-12-09T22:07:45.325Z,7.15
2018-12-09T22:08:45.275Z,7.15
2018-12-09T22:09:45.229Z,7.11
2018-12-09T22:10:45.232Z,7.14
2018-12-09T22:11:45.535Z,7.09
2018-12-09T22:12:45.391Z,7.12
2018-12-09T22:13:45.055Z,7.19
2018-12-09T22:14:44.997Z,7.09
2018-12-09T22:15:44.953Z,7.09
2018-12-09T22:16:44.909Z,7.07
2018-12-09T22:17:44.866Z,7.08
2018-12-09T22:18:45.114Z,7.05
2018-12-09T22:19:44.818Z,6.97
2018-12-09T22:20:44.727Z,6.94
2018-12-09T22:21:44.704Z,7.00
2018-12-09T22:22:44.636Z,6.94
2018-12-09T22:23:44.585Z,7.00
2018-12-09T22:24:44.592Z,6.83
2018-12-09T22:25:44.996Z,6.99
2018-12-09T22:26:44.449Z,6.97
2018-12-09T22:27:44.401Z,7.09
2018-12-09T22:28:44.509Z,7.09
2018-12-09T22:29:44.309Z,7.08
2018-12-09T22:30:44.263Z,7.15
2018-12-09T22:31:44.218Z,7.14
2018-12-09T22:32:44.477Z,7.21
2018-12-09T22:33:44.126Z,7.12
2018-12-09T22:34:44.184Z,7.04
2018-12-09T22:35:44.130Z,7.05
2018-12-09T22:36:43.988Z,6.99
2018-12-09T22:37:43.945Z,6.89
2018-12-09T22:38:43.894Z,7.00
2018-12-09T22:39:44.153Z,6.96
2018-12-09T22:40:43.804Z,6.97
2018-12-09T22:41:43.758Z,6.93
2018-12-09T22:42:44.299Z,6.96
2018-12-09T22:43:43.666Z,6.93
2018-12-09T22:44:43.679Z,6.87
2018-12-09T22:45:43.625Z,6.82
2018-12-09T22:46:43.828Z,6.91
2018-12-09T22:47:43.481Z,6.90
2018-12-09T22:48:43.437Z,6.69
2018-12-09T22:49:43.390Z,6.71
2018-12-09T22:51:43.298Z,6.71
2018-12-09T22:52:43.255Z,6.71
2018-12-09T22:53:43.506Z,6.61
2018-12-09T22:54:43.159Z,6.65
2018-12-09T22:55:43.312Z,6.68
2018-12-09T22:56:43.066Z,6.69
2018-12-09T22:57:43.021Z,6.68
2018-12-09T22:58:42.977Z,6.65
2018-12-09T22:59:42.928Z,6.57
2018-12-09T23:00:45.181Z,6.58
2018-12-09T23:01:42.887Z,6.55
2018-12-09T23:02:42.789Z,6.58
2018-12-09T23:03:42.757Z,6.54
2018-12-09T23:04:42.701Z,6.58
2018-12-09T23:05:42.925Z,6.54
2018-12-09T23:06:42.608Z,6.46
2018-12-09T23:07:43.010Z,6.55
2018-12-09T23:08:42.513Z,6.58
2018-12-09T23:09:42.469Z,6.50
2018-12-09T23:10:42.424Z,6.51
2018-12-09T23:11:42.389Z,6.36
2018-12-09T23:12:42.328Z,6.42
2018-12-09T23:13:42.283Z,6.51
2018-12-09T23:14:42.585Z,6.53
2018-12-09T23:15:42.189Z,6.53
2018-12-09T23:16:42.144Z,6.48
2018-12-09T23:17:42.097Z,6.42
2018-12-09T23:18:42.101Z,6.24
2018-12-09T23:19:42.006Z,6.27
2018-12-09T23:20:42.266Z,6.25
2018-12-09T23:21:41.946Z,6.45
2018-12-09T23:23:41.818Z,6.35
2018-12-09T23:24:41.929Z,6.39
2018-12-09T23:25:41.735Z,6.43
2018-12-09T23:26:41.680Z,6.54
2018-12-09T23:27:41.941Z,6.54
2018-12-09T23:28:41.587Z,6.45
2018-12-09T23:29:41.545Z,6.57
2018-12-09T23:30:41.495Z,6.60
2018-12-09T23:31:41.450Z,6.45
2018-12-09T23:32:41.402Z,6.55
2018-12-09T23:33:41.378Z,6.45
2018-12-09T23:34:41.609Z,6.42
2018-12-09T23:35:41.313Z,6.40
2018-12-09T23:36:41.217Z,6.35
2018-12-09T23:37:41.215Z,6.40
2018-12-09T23:38:41.124Z,6.43
2018-12-09T23:39:41.077Z,6.42
2018-12-09T23:41:41.186Z,6.45
2018-12-09T23:42:41.255Z,6.53
2018-12-09T23:43:40.893Z,6.51
2018-12-09T23:44:40.846Z,6.55
2018-12-09T23:45:40.801Z,6.54
2018-12-09T23:46:40.753Z,6.57
2018-12-09T23:47:40.858Z,6.55
2018-12-09T23:48:41.012Z,6.54
2018-12-09T23:49:40.614Z,6.48
2018-12-09T23:50:40.568Z,6.48
2018-12-09T23:51:40.575Z,6.53
2018-12-09T23:52:40.479Z,6.45
2018-12-09T23:53:40.429Z,6.48
2018-12-09T23:54:40.383Z,6.55
2018-12-09T23:55:40.641Z,6.55
2018-12-09T23:56:40.292Z,6.54
2018-12-09T23:57:40.248Z,6.60
2018-12-09T23:58:40.500Z,6.60
2018-12-09T23:59:40.156Z,6.65
